Time;durP1;ratioP1;P1;durP2;ratioP2;P2;SDS_P1;SDS_P2;PMS_P1;PMS_P2;Temp;Humidity;BMP_temperature;BMP_pressure;BME280_temperature;BME280_humidity;BME280_pressure;Samples;Min_cycle;Max_cycle;Signal;HPM_P1;HPM_P2
2022/03/25 00:02:23;;;;;;;35.75;30.98;;;;;;;;;;5050110;28;20049;-86
2022/03/25 00:04:49;;;;;;;38.17;31.58;;;;;;;;;;5051215;28;20049;-87
2022/03/25 00:07:16;;;;;;;35.70;31.60;;;;;;;;;;5047308;28;20548;-87
2022/03/25 00:09:45;;;;;;;38.05;32.53;;;;;;;;;;5043765;28;20042;-87
2022/03/25 00:12:11;;;;;;;38.42;31.30;;;;;;;;;;5058115;28;20083;-85
2022/03/25 00:14:37;;;;;;;38.60;33.15;;;;;;;;;;5068683;28;20024;-87
2022/03/25 00:17:03;;;;;;;39.70;34.42;;;;;;;;;;5065551;28;20029;-87
2022/03/25 00:19:29;;;;;;;39.08;34.78;;;;;;;;;;5051179;28;20041;-86
2022/03/25 00:21:55;;;;;;;39.70;34.70;;;;;;;;;;5047240;28;20103;-86
2022/03/25 00:24:23;;;;;;;38.95;34.47;;;;;;;;;;5046982;28;20045;-88
2022/03/25 00:26:49;;;;;;;37.90;32.20;;;;;;;;;;5068931;22;20061;-86
2022/03/25 00:29:15;;;;;;;37.55;32.25;;;;;;;;;;5024050;28;20129;-86
2022/03/25 00:31:41;;;;;;;36.55;31.30;;;;;;;;;;5033048;28;20049;-86
2022/03/25 00:34:09;;;;;;;36.75;32.65;;;;;;;;;;5029980;28;20047;-86
2022/03/25 00:36:35;;;;;;;37.60;33.63;;;;;;;;;;5024297;28;20092;-87
2022/03/25 00:39:01;;;;;;;39.20;33.38;;;;;;;;;;5032665;28;20050;-86
2022/03/25 00:41:27;;;;;;;38.35;32.22;;;;;;;;;;5029923;28;20578;-86
2022/03/25 00:43:53;;;;;;;37.40;33.15;;;;;;;;;;5033189;28;20074;-86
2022/03/25 00:46:19;;;;;;;37.97;33.72;;;;;;;;;;5032304;28;20102;-87
2022/03/25 00:48:45;;;;;;;40.88;34.88;;;;;;;;;;5024034;28;20052;-87
2022/03/25 00:51:11;;;;;;;38.38;34.00;;;;;;;;;;5024345;28;20053;-86
2022/03/25 00:53:37;;;;;;;40.97;35.10;;;;;;;;;;5026040;28;20061;-86
2022/03/25 00:56:04;;;;;;;40.22;34.35;;;;;;;;;;5031812;28;20634;-87
2022/03/25 00:58:30;;;;;;;43.42;36.10;;;;;;;;;;5030047;28;20045;-86
2022/03/25 01:00:56;;;;;;;43.63;36.42;;;;;;;;;;5029607;28;20099;-85
2022/03/25 01:03:23;;;;;;;40.55;34.85;;;;;;;;;;5027887;28;20045;-86
2022/03/25 01:05:49;;;;;;;41.78;35.15;;;;;;;;;;5029689;28;20159;-87
2022/03/25 01:08:15;;;;;;;41.88;34.30;;;;;;;;;;5022000;28;20084;-87
2022/03/25 01:10:41;;;;;;;39.20;33.05;;;;;;;;;;5029584;28;20041;-87
2022/03/25 01:13:08;;;;;;;39.90;34.45;;;;;;;;;;5030740;28;20401;-87
2022/03/25 01:15:34;;;;;;;38.45;33.20;;;;;;;;;;5027307;28;20076;-87
2022/03/25 01:18:00;;;;;;;39.05;32.80;;;;;;;;;;5030557;28;20116;-87
2022/03/25 01:20:26;;;;;;;35.90;31.20;;;;;;;;;;5029071;28;20592;-87
2022/03/25 01:22:52;;;;;;;39.33;33.10;;;;;;;;;;5021663;28;20095;-86
2022/03/25 01:25:18;;;;;;;41.65;33.42;;;;;;;;;;5030162;28;20037;-86
2022/03/25 01:27:44;;;;;;;38.30;31.42;;;;;;;;;;5027984;28;20489;-87
2022/03/25 01:30:10;;;;;;;41.50;32.45;;;;;;;;;;5031425;28;20128;-86
2022/03/25 01:32:37;;;;;;;38.70;32.35;;;;;;;;;;5031374;28;20132;-86
2022/03/25 01:35:06;;;;;;;34.63;30.27;;;;;;;;;;5024955;28;20052;-86
2022/03/25 01:37:32;;;;;;;33.50;29.42;;;;;;;;;;5024127;28;20060;-87
2022/03/25 01:39:58;;;;;;;37.33;30.77;;;;;;;;;;5025634;28;20037;-87
2022/03/25 01:42:34;;;;;;;38.58;30.63;;;;;;;;;;5023060;28;20042;-87
2022/03/25 01:45:00;;;;;;;37.78;31.88;;;;;;;;;;5030568;28;20052;-87
2022/03/25 01:47:30;;;;;;;38.05;32.72;;;;;;;;;;5023704;28;20045;-87
2022/03/25 01:50:00;;;;;;;40.45;33.55;;;;;;;;;;5021927;28;20092;-87
2022/03/25 01:52:27;;;;;;;40.97;35.50;;;;;;;;;;5022471;28;20107;-87
2022/03/25 01:54:53;;;;;;;46.65;35.78;;;;;;;;;;5031312;28;20041;-87
2022/03/25 01:57:19;;;;;;;46.88;37.35;;;;;;;;;;5024758;28;20038;-87
2022/03/25 01:59:45;;;;;;;43.22;36.08;;;;;;;;;;5021381;28;20095;-85
2022/03/25 02:02:11;;;;;;;40.75;34.17;;;;;;;;;;5026968;28;20050;-86
2022/03/25 02:04:38;;;;;;;43.50;35.33;;;;;;;;;;5030052;28;20038;-87
2022/03/25 02:07:04;;;;;;;43.80;36.50;;;;;;;;;;5025014;28;20061;-87
2022/03/25 02:09:31;;;;;;;43.33;36.88;;;;;;;;;;5027726;28;20041;-86
2022/03/25 02:11:57;;;;;;;41.72;35.70;;;;;;;;;;5027182;28;20044;-86
2022/03/25 02:14:24;;;;;;;46.15;36.17;;;;;;;;;;5026509;28;20049;-87
2022/03/25 02:16:51;;;;;;;45.83;37.75;;;;;;;;;;5018222;28;20046;-86
2022/03/25 02:19:18;;;;;;;44.83;37.15;;;;;;;;;;5027296;28;20049;-86
2022/03/25 02:21:44;;;;;;;44.47;36.78;;;;;;;;;;5026149;28;20095;-86
2022/03/25 02:24:14;;;;;;;43.42;36.75;;;;;;;;;;5021091;28;20049;-86
2022/03/25 02:26:41;;;;;;;42.78;36.17;;;;;;;;;;5025616;28;20056;-86
2022/03/25 02:29:09;;;;;;;42.17;35.08;;;;;;;;;;5029660;28;20053;-86
2022/03/25 02:31:35;;;;;;;44.30;35.67;;;;;;;;;;5034424;28;20056;-85
2022/03/25 02:34:03;;;;;;;44.47;34.72;;;;;;;;;;5035061;28;20045;-84
2022/03/25 02:36:29;;;;;;;40.75;34.15;;;;;;;;;;5033004;28;20045;-86
2022/03/25 02:38:55;;;;;;;43.22;34.78;;;;;;;;;;5022802;28;20049;-85
2022/03/25 02:41:21;;;;;;;42.95;35.70;;;;;;;;;;5020741;28;20371;-86
2022/03/25 02:43:47;;;;;;;43.00;35.13;;;;;;;;;;5022309;28;20105;-85
2022/03/25 02:46:15;;;;;;;44.22;35.42;;;;;;;;;;5023654;28;20038;-87
2022/03/25 02:48:48;;;;;;;44.28;35.17;;;;;;;;;;5025919;28;20112;-85
2022/03/25 02:51:14;;;;;;;39.83;34.15;;;;;;;;;;5024282;28;20052;-86
2022/03/25 02:53:40;;;;;;;41.33;35.10;;;;;;;;;;5023662;28;20045;-86
2022/03/25 02:56:06;;;;;;;43.30;35.40;;;;;;;;;;5023113;28;20049;-86
2022/03/25 02:58:32;;;;;;;41.25;33.53;;;;;;;;;;5029122;28;20092;-86
2022/03/25 03:00:58;;;;;;;43.10;35.42;;;;;;;;;;5027842;28;20064;-86
2022/03/25 03:03:25;;;;;;;46.72;36.05;;;;;;;;;;5020244;28;20041;-86
2022/03/25 03:05:51;;;;;;;44.60;36.08;;;;;;;;;;5029094;28;20405;-86
2022/03/25 03:08:20;;;;;;;45.13;35.53;;;;;;;;;;5029389;28;20041;-86
2022/03/25 03:10:48;;;;;;;46.42;37.17;;;;;;;;;;5024854;28;20127;-85
2022/03/25 03:13:15;;;;;;;44.90;36.17;;;;;;;;;;5029378;28;20266;-86
2022/03/25 03:15:41;;;;;;;42.87;34.67;;;;;;;;;;5025702;28;20049;-86
2022/03/25 03:18:07;;;;;;;43.00;34.58;;;;;;;;;;5026026;28;20409;-85
2022/03/25 03:20:33;;;;;;;43.75;35.38;;;;;;;;;;5032126;28;20497;-86
2022/03/25 03:23:00;;;;;;;44.00;35.53;;;;;;;;;;5028772;28;20511;-86
2022/03/25 03:25:26;;;;;;;42.97;34.90;;;;;;;;;;5021648;28;20050;-86
2022/03/25 03:27:53;;;;;;;43.78;35.13;;;;;;;;;;5033127;28;20397;-85
2022/03/25 03:30:19;;;;;;;43.13;35.17;;;;;;;;;;5026851;28;20046;-86
2022/03/25 03:32:54;;;;;;;45.20;36.55;;;;;;;;;;5032619;28;20037;-86
2022/03/25 03:35:20;;;;;;;43.97;34.78;;;;;;;;;;5030935;28;20367;-86
2022/03/25 03:37:46;;;;;;;43.13;34.20;;;;;;;;;;5022836;28;20059;-87
2022/03/25 03:40:14;;;;;;;43.10;34.53;;;;;;;;;;5032198;28;20375;-86
2022/03/25 03:42:43;;;;;;;47.03;36.95;;;;;;;;;;5031093;28;20496;-86
2022/03/25 03:45:10;;;;;;;42.15;34.22;;;;;;;;;;5026620;28;20045;-86
2022/03/25 03:47:36;;;;;;;43.17;34.67;;;;;;;;;;5032565;28;20481;-86
2022/03/25 03:50:03;;;;;;;44.47;35.10;;;;;;;;;;5032908;28;20448;-85
2022/03/25 03:52:32;;;;;;;42.15;33.55;;;;;;;;;;5025434;28;20474;-84
2022/03/25 03:54:58;;;;;;;45.42;35.05;;;;;;;;;;5030485;28;20065;-85
2022/03/25 03:57:25;;;;;;;43.88;36.33;;;;;;;;;;5028916;28;20128;-85
2022/03/25 03:59:51;;;;;;;42.22;33.42;;;;;;;;;;5031080;28;20120;-86
2022/03/25 04:02:17;;;;;;;43.00;35.10;;;;;;;;;;5026099;28;20494;-85
2022/03/25 04:04:43;;;;;;;43.90;33.95;;;;;;;;;;5031372;28;20112;-86
2022/03/25 04:07:09;;;;;;;41.85;34.22;;;;;;;;;;5028921;28;20125;-85
2022/03/25 04:09:39;;;;;;;42.25;33.58;;;;;;;;;;5031559;28;20128;-85
2022/03/25 04:12:05;;;;;;;43.15;34.58;;;;;;;;;;5025968;28;20041;-86
2022/03/25 04:14:31;;;;;;;43.90;34.85;;;;;;;;;;5026837;28;20056;-85
2022/03/25 04:16:59;;;;;;;42.05;34.58;;;;;;;;;;5026431;28;20089;-85
2022/03/25 04:19:25;;;;;;;42.88;34.83;;;;;;;;;;5024098;28;20104;-85
2022/03/25 04:21:51;;;;;;;46.20;36.05;;;;;;;;;;5028124;28;20517;-85
2022/03/25 04:24:17;;;;;;;44.72;36.03;;;;;;;;;;5023751;28;20299;-86
2022/03/25 04:26:43;;;;;;;46.95;35.90;;;;;;;;;;5023460;28;20088;-86
2022/03/25 04:29:09;;;;;;;45.15;35.58;;;;;;;;;;5030239;28;20088;-85
2022/03/25 04:31:35;;;;;;;44.88;35.10;;;;;;;;;;5022800;28;20034;-85
2022/03/25 04:34:01;;;;;;;48.25;36.42;;;;;;;;;;5027655;28;20405;-85
2022/03/25 04:36:27;;;;;;;45.53;34.10;;;;;;;;;;5022986;28;20120;-85
2022/03/25 04:38:52;;;;;;;43.58;34.05;;;;;;;;;;5030556;28;20138;-85
2022/03/25 04:41:19;;;;;;;44.78;35.30;;;;;;;;;;5029247;28;20584;-85
2022/03/25 04:43:45;;;;;;;51.80;35.75;;;;;;;;;;5029576;28;20049;-85
2022/03/25 04:46:11;;;;;;;46.50;35.75;;;;;;;;;;5021701;28;20136;-86
2022/03/25 04:48:37;;;;;;;44.22;34.83;;;;;;;;;;5032275;28;20056;-84
2022/03/25 04:51:03;;;;;;;46.20;35.97;;;;;;;;;;5030793;28;20047;-85
2022/03/25 04:53:29;;;;;;;47.42;34.92;;;;;;;;;;5024566;28;20521;-84
2022/03/25 04:55:55;;;;;;;49.40;36.05;;;;;;;;;;5025013;28;20034;-86
2022/03/25 04:58:21;;;;;;;45.25;34.58;;;;;;;;;;5028646;28;20452;-86
2022/03/25 05:00:48;;;;;;;45.55;34.88;;;;;;;;;;5025422;28;20064;-86
2022/03/25 05:03:14;;;;;;;41.08;32.13;;;;;;;;;;5027982;28;20111;-85
2022/03/25 05:05:42;;;;;;;40.50;32.53;;;;;;;;;;5027080;28;20050;-85
2022/03/25 05:08:11;;;;;;;44.85;34.90;;;;;;;;;;5026601;28;20049;-85
2022/03/25 05:10:40;;;;;;;45.05;34.25;;;;;;;;;;5019185;28;20041;-85
2022/03/25 05:13:08;;;;;;;43.10;33.78;;;;;;;;;;5028833;28;20086;-86
2022/03/25 05:15:34;;;;;;;44.50;34.10;;;;;;;;;;5024071;28;20451;-86
2022/03/25 05:18:01;;;;;;;43.65;33.05;;;;;;;;;;5017606;28;20551;-85
2022/03/25 05:20:27;;;;;;;42.22;33.55;;;;;;;;;;5031607;28;20334;-86
2022/03/25 05:22:53;;;;;;;45.38;34.30;;;;;;;;;;5031776;28;20052;-85
2022/03/25 05:25:19;;;;;;;45.13;34.65;;;;;;;;;;5027255;28;20539;-86
2022/03/25 05:27:57;;;;;;;48.05;37.17;;;;;;;;;;5029959;28;20547;-86
2022/03/25 05:30:31;;;;;;;47.85;35.25;;;;;;;;;;5019890;28;20049;-85
2022/03/25 05:32:58;;;;;;;44.45;35.15;;;;;;;;;;5022785;28;20378;-85
2022/03/25 05:35:25;;;;;;;47.38;34.80;;;;;;;;;;5007137;28;20414;-85
2022/03/25 05:37:51;;;;;;;46.80;34.85;;;;;;;;;;5025072;28;20048;-85
2022/03/25 05:40:18;;;;;;;48.10;35.40;;;;;;;;;;5021686;28;20073;-87
2022/03/25 05:42:49;;;;;;;45.08;34.50;;;;;;;;;;5031616;28;20045;-85
2022/03/25 05:45:16;;;;;;;44.70;35.05;;;;;;;;;;5011288;28;20061;-86
2022/03/25 05:47:42;;;;;;;41.10;33.13;;;;;;;;;;5030920;28;20049;-85
2022/03/25 05:50:09;;;;;;;43.67;34.10;;;;;;;;;;5023671;28;20046;-85
2022/03/25 05:52:37;;;;;;;42.45;33.58;;;;;;;;;;5023721;28;20052;-85
2022/03/25 05:55:06;;;;;;;45.13;34.70;;;;;;;;;;5019711;28;20095;-86
2022/03/25 05:57:33;;;;;;;41.00;32.97;;;;;;;;;;5031588;28;20037;-85
2022/03/25 05:59:59;;;;;;;45.30;34.38;;;;;;;;;;5028696;28;20503;-85
2022/03/25 06:02:26;;;;;;;43.75;35.10;;;;;;;;;;5028809;28;20098;-85
2022/03/25 06:04:52;;;;;;;43.35;35.35;;;;;;;;;;5025472;28;20056;-86
2022/03/25 06:07:18;;;;;;;40.88;34.03;;;;;;;;;;5025942;28;20061;-85
2022/03/25 06:09:44;;;;;;;44.60;34.88;;;;;;;;;;5030340;28;20095;-85
2022/03/25 06:12:11;;;;;;;44.33;35.13;;;;;;;;;;5030525;28;20045;-86
2022/03/25 06:14:38;;;;;;;45.25;33.63;;;;;;;;;;5031628;28;20042;-84
2022/03/25 06:17:04;;;;;;;43.67;34.67;;;;;;;;;;5030405;28;20110;-86
2022/03/25 06:19:31;;;;;;;44.35;34.97;;;;;;;;;;5028154;28;20046;-85
2022/03/25 06:21:57;;;;;;;45.63;34.15;;;;;;;;;;5030729;28;20205;-84
2022/03/25 06:24:23;;;;;;;46.58;34.00;;;;;;;;;;5028465;28;20049;-84
2022/03/25 06:26:49;;;;;;;45.22;34.00;;;;;;;;;;5025971;28;20049;-85
2022/03/25 06:29:16;;;;;;;42.50;32.80;;;;;;;;;;5024955;28;20061;-85
2022/03/25 06:31:42;;;;;;;45.50;34.42;;;;;;;;;;5023358;28;20060;-85
2022/03/25 06:34:09;;;;;;;41.50;32.75;;;;;;;;;;5024599;28;20076;-84
2022/03/25 06:36:35;;;;;;;45.92;34.38;;;;;;;;;;5029453;28;20100;-85
2022/03/25 06:39:01;;;;;;;41.88;32.97;;;;;;;;;;5027434;28;20409;-85
2022/03/25 06:41:27;;;;;;;41.72;32.58;;;;;;;;;;5011171;28;20477;-85
2022/03/25 06:43:54;;;;;;;44.05;33.47;;;;;;;;;;5024214;28;20335;-86
2022/03/25 06:46:20;;;;;;;40.65;32.47;;;;;;;;;;5023853;28;20042;-87
2022/03/25 06:48:46;;;;;;;45.63;33.58;;;;;;;;;;5030901;28;20126;-87
2022/03/25 06:51:13;;;;;;;43.92;32.28;;;;;;;;;;5031678;28;20095;-86
2022/03/25 06:53:39;;;;;;;41.40;32.78;;;;;;;;;;5026348;28;20068;-86
2022/03/25 06:56:05;;;;;;;43.17;33.42;;;;;;;;;;5030083;28;20485;-87
2022/03/25 06:58:31;;;;;;;44.35;32.70;;;;;;;;;;5024495;28;20064;-86
2022/03/25 07:00:57;;;;;;;40.55;32.28;;;;;;;;;;5033308;28;20109;-86
2022/03/25 07:03:24;;;;;;;42.78;33.30;;;;;;;;;;5047980;28;20054;-87
2022/03/25 07:05:52;;;;;;;44.08;34.70;;;;;;;;;;5040655;28;20064;-84
2022/03/25 07:08:21;;;;;;;44.15;35.30;;;;;;;;;;5036336;28;20112;-87
2022/03/25 07:10:48;;;;;;;42.05;34.08;;;;;;;;;;5031280;28;20049;-87
2022/03/25 07:13:14;;;;;;;46.30;35.13;;;;;;;;;;5027963;28;20508;-87
2022/03/25 07:15:40;;;;;;;43.85;35.05;;;;;;;;;;5029266;28;20044;-86
2022/03/25 07:18:06;;;;;;;48.95;37.70;;;;;;;;;;5027763;28;20448;-87
2022/03/25 07:20:32;;;;;;;50.97;37.33;;;;;;;;;;5025948;28;20045;-87
2022/03/25 07:23:10;;;;;;;56.85;38.28;;;;;;;;;;5022123;28;20875;-86
2022/03/25 07:25:37;;;;;;;51.03;37.03;;;;;;;;;;5030366;28;20374;-87
2022/03/25 07:28:06;;;;;;;45.80;37.40;;;;;;;;;;5029199;28;20138;-87
2022/03/25 07:30:32;;;;;;;50.15;37.88;;;;;;;;;;5048002;28;20060;-86
2022/03/25 07:32:58;;;;;;;46.25;36.85;;;;;;;;;;5022830;28;20056;-86
2022/03/25 07:35:24;;;;;;;53.05;37.30;;;;;;;;;;5025345;28;20043;-86
2022/03/25 07:37:50;;;;;;;46.03;37.50;;;;;;;;;;5027526;28;20374;-85
2022/03/25 07:40:17;;;;;;;45.45;35.83;;;;;;;;;;5032584;28;20041;-86
2022/03/25 07:42:44;;;;;;;49.28;38.25;;;;;;;;;;5031590;28;20481;-84
2022/03/25 07:45:11;;;;;;;45.13;35.95;;;;;;;;;;5035131;28;20041;-85
2022/03/25 07:47:47;;;;;;;42.53;34.90;;;;;;;;;;5031130;28;20046;-83
2022/03/25 07:50:13;;;;;;;43.80;35.33;;;;;;;;;;5025936;28;20462;-83
2022/03/25 07:52:40;;;;;;;45.22;35.05;;;;;;;;;;5033025;28;20378;-84
2022/03/25 07:55:06;;;;;;;41.17;33.55;;;;;;;;;;5030468;28;20056;-84
2022/03/25 07:57:34;;;;;;;41.40;34.53;;;;;;;;;;5035459;28;20956;-84
2022/03/25 08:00:00;;;;;;;35.85;31.13;;;;;;;;;;5031323;28;20045;-83
2022/03/25 08:02:26;;;;;;;40.03;31.58;;;;;;;;;;5034359;28;20041;-85
2022/03/25 08:05:03;;;;;;;35.75;30.08;;;;;;;;;;5035273;28;20106;-86
2022/03/25 08:07:29;;;;;;;36.03;30.23;;;;;;;;;;5036204;28;20064;-85
2022/03/25 08:09:55;;;;;;;34.35;29.58;;;;;;;;;;5028880;28;20458;-84
2022/03/25 08:12:21;;;;;;;36.45;28.40;;;;;;;;;;5023264;28;20120;-85
2022/03/25 08:14:48;;;;;;;37.15;28.30;;;;;;;;;;5024948;28;20203;-85
2022/03/25 08:17:14;;;;;;;33.42;27.15;;;;;;;;;;5031515;28;20163;-85
2022/03/25 08:19:40;;;;;;;30.75;27.05;;;;;;;;;;5029875;28;20119;-85
2022/03/25 08:22:06;;;;;;;32.03;27.27;;;;;;;;;;5029919;28;20105;-85
2022/03/25 08:30:01;;;;;;;32.65;26.55;;;;;;;;;;5033468;28;20045;-86
2022/03/25 08:32:27;;;;;;;29.83;25.90;;;;;;;;;;5030343;28;20123;-86
2022/03/25 08:34:53;;;;;;;31.23;25.92;;;;;;;;;;5023443;28;20053;-84
2022/03/25 08:37:19;;;;;;;32.15;26.20;;;;;;;;;;5021744;28;20041;-83
2022/03/25 08:39:45;;;;;;;28.77;24.90;;;;;;;;;;5029824;28;20541;-83
2022/03/25 08:42:13;;;;;;;29.90;25.20;;;;;;;;;;5030751;28;20060;-84
2022/03/25 08:44:40;;;;;;;28.48;23.67;;;;;;;;;;5028446;28;20042;-84
2022/03/25 08:47:07;;;;;;;27.80;23.02;;;;;;;;;;5021073;28;20042;-84
2022/03/25 08:49:34;;;;;;;28.63;23.95;;;;;;;;;;5021489;28;20037;-83
2022/03/25 08:52:00;;;;;;;29.13;21.83;;;;;;;;;;5028833;28;20179;-84
2022/03/25 08:54:26;;;;;;;29.38;21.63;;;;;;;;;;5031189;28;20108;-84
2022/03/25 08:56:53;;;;;;;27.40;22.60;;;;;;;;;;5033146;28;20056;-83
2022/03/25 08:59:19;;;;;;;27.90;22.27;;;;;;;;;;5026263;28;20088;-85
2022/03/25 09:01:46;;;;;;;23.65;20.50;;;;;;;;;;5032203;28;20053;-84
2022/03/25 09:04:12;;;;;;;24.85;21.00;;;;;;;;;;5031324;28;20128;-84
2022/03/25 09:06:38;;;;;;;25.25;20.40;;;;;;;;;;5006141;28;20125;-83
2022/03/25 09:09:04;;;;;;;22.27;19.88;;;;;;;;;;5027592;28;20048;-84
2022/03/25 09:11:31;;;;;;;22.77;20.25;;;;;;;;;;5033399;28;20041;-85
2022/03/25 09:13:57;;;;;;;22.55;19.48;;;;;;;;;;5025027;28;20405;-85
2022/03/25 09:16:23;;;;;;;24.50;19.83;;;;;;;;;;5023921;28;20045;-86
2022/03/25 09:18:49;;;;;;;27.83;20.90;;;;;;;;;;5032516;28;20041;-87
2022/03/25 09:21:16;;;;;;;28.05;20.33;;;;;;;;;;5026873;28;20044;-86
2022/03/25 09:23:42;;;;;;;26.83;19.27;;;;;;;;;;5032615;28;20053;-85
2022/03/25 09:26:08;;;;;;;24.40;18.48;;;;;;;;;;5039758;28;20130;-85
2022/03/25 09:28:34;;;;;;;23.58;17.98;;;;;;;;;;5040409;28;20053;-86
2022/03/25 09:31:00;;;;;;;26.27;18.55;;;;;;;;;;5035009;28;20041;-84
2022/03/25 09:33:26;;;;;;;23.67;18.55;;;;;;;;;;5034677;28;20115;-84
2022/03/25 09:35:52;;;;;;;22.60;18.63;;;;;;;;;;5036014;28;20100;-85
2022/03/25 09:38:18;;;;;;;24.17;20.17;;;;;;;;;;5033582;28;20095;-86
2022/03/25 09:40:46;;;;;;;24.30;19.73;;;;;;;;;;5034614;28;20045;-88
2022/03/25 09:43:12;;;;;;;25.77;20.17;;;;;;;;;;5029618;28;20057;-87
2022/03/25 09:45:38;;;;;;;24.33;19.20;;;;;;;;;;5032987;28;20037;-90
2022/03/25 09:48:05;;;;;;;24.08;16.92;;;;;;;;;;5031292;28;20184;-88
2022/03/25 09:50:33;;;;;;;21.15;16.13;;;;;;;;;;5029912;28;20049;-89
2022/03/25 09:52:59;;;;;;;18.98;15.02;;;;;;;;;;5026379;28;20047;-86
2022/03/25 09:55:25;;;;;;;20.88;15.88;;;;;;;;;;5030618;28;20604;-86
2022/03/25 09:57:51;;;;;;;19.92;15.68;;;;;;;;;;5028923;28;20120;-88
2022/03/25 10:00:18;;;;;;;20.88;16.52;;;;;;;;;;5019781;28;20541;-87
2022/03/25 10:02:45;;;;;;;23.52;16.45;;;;;;;;;;5030911;28;20355;-87
2022/03/25 10:05:29;;;;;;;20.58;16.50;;;;;;;;;;5029542;28;20120;-87
2022/03/25 10:08:15;;;;;;;19.52;16.05;;;;;;;;;;5023532;28;20050;-87
2022/03/25 10:10:41;;;;;;;22.58;17.58;;;;;;;;;;5026443;28;20045;-87
2022/03/25 10:13:08;;;;;;;21.77;17.15;;;;;;;;;;5028149;28;20060;-87
2022/03/25 10:15:37;;;;;;;21.00;15.60;;;;;;;;;;5038948;28;20075;-87
2022/03/25 10:18:09;;;;;;;19.13;15.52;;;;;;;;;;5029906;28;20124;-88
2022/03/25 10:20:39;;;;;;;19.80;15.88;;;;;;;;;;5028770;28;20050;-88
2022/03/25 10:23:11;;;;;;;20.80;17.20;;;;;;;;;;5035197;28;20061;-87
2022/03/25 10:25:45;;;;;;;24.88;16.98;;;;;;;;;;5035736;28;20057;-89
2022/03/25 10:28:26;;;;;;;19.08;15.43;;;;;;;;;;5036586;28;20072;-87
2022/03/25 10:30:54;;;;;;;20.88;17.13;;;;;;;;;;5035941;28;20103;-88
2022/03/25 10:33:26;;;;;;;21.45;18.30;;;;;;;;;;5035025;28;20358;-88
2022/03/25 10:35:58;;;;;;;21.85;18.65;;;;;;;;;;5034061;28;20071;-88
2022/03/25 10:38:25;;;;;;;22.35;18.17;;;;;;;;;;5033493;28;20057;-89
2022/03/25 10:40:55;;;;;;;22.23;17.58;;;;;;;;;;5035250;28;20076;-89
2022/03/25 10:43:21;;;;;;;23.33;17.60;;;;;;;;;;5037022;28;20084;-88
2022/03/25 10:45:48;;;;;;;21.55;18.45;;;;;;;;;;5033590;28;20041;-88
2022/03/25 10:48:21;;;;;;;20.38;17.42;;;;;;;;;;5038192;28;20068;-88
2022/03/25 10:51:16;;;;;;;21.45;18.58;;;;;;;;;;5040307;28;20107;-88
2022/03/25 10:53:47;;;;;;;22.33;19.58;;;;;;;;;;5024608;28;20056;-87
2022/03/25 10:56:20;;;;;;;22.40;19.05;;;;;;;;;;5038289;28;20103;-89
2022/03/25 10:58:53;;;;;;;21.73;18.13;;;;;;;;;;5035976;28;20049;-85
2022/03/25 11:01:19;;;;;;;22.95;18.70;;;;;;;;;;5031892;28;20118;-89
2022/03/25 11:03:45;;;;;;;21.42;17.30;;;;;;;;;;5035933;28;20038;-88
2022/03/25 11:06:15;;;;;;;24.20;18.58;;;;;;;;;;5031182;28;20045;-89
2022/03/25 11:08:43;;;;;;;22.42;17.58;;;;;;;;;;5034672;28;20485;-88
2022/03/25 11:11:09;;;;;;;24.42;18.10;;;;;;;;;;5034203;28;20041;-89
2022/03/25 11:13:35;;;;;;;21.70;16.90;;;;;;;;;;5029456;28;20069;-89
2022/03/25 11:16:08;;;;;;;20.80;17.15;;;;;;;;;;5033476;28;20100;-89
2022/03/25 11:18:34;;;;;;;22.17;17.33;;;;;;;;;;5031815;28;20053;-88
2022/03/25 11:21:00;;;;;;;20.88;15.80;;;;;;;;;;5032264;28;20042;-88
2022/03/25 11:23:32;;;;;;;19.70;16.13;;;;;;;;;;5031930;28;20056;-88
2022/03/25 11:26:02;;;;;;;21.60;17.15;;;;;;;;;;5030904;28;20077;-91
2022/03/25 11:28:34;;;;;;;20.85;17.15;;;;;;;;;;5040051;28;20409;-92
2022/03/25 11:31:05;;;;;;;20.65;16.52;;;;;;;;;;5030130;28;20041;-92
2022/03/25 11:33:31;;;;;;;21.95;17.48;;;;;;;;;;5038558;28;20128;-92
2022/03/25 11:36:14;;;;;;;22.35;16.63;;;;;;;;;;5034242;28;20037;-91
2022/03/25 11:38:40;;;;;;;22.35;17.40;;;;;;;;;;5033683;28;20056;-92
2022/03/25 11:41:23;;;;;;;19.52;16.98;;;;;;;;;;5043943;28;20041;-92
2022/03/25 11:44:08;;;;;;;21.05;16.73;;;;;;;;;;5057069;28;20033;-82
2022/03/25 11:46:34;;;;;;;21.63;18.15;;;;;;;;;;5054990;28;20033;-87
2022/03/25 11:49:18;;;;;;;23.67;18.42;;;;;;;;;;5040918;28;20052;-91
2022/03/25 11:51:45;;;;;;;24.42;19.15;;;;;;;;;;5039146;28;20545;-90
2022/03/25 11:54:30;;;;;;;19.23;16.25;;;;;;;;;;5036619;28;20123;-91
2022/03/25 11:56:56;;;;;;;21.25;16.23;;;;;;;;;;5026487;28;20077;-91
2022/03/25 12:22:33;;;;;;;18.58;14.30;;;;;;;;;;5034341;28;20057;-92
2022/03/25 12:25:10;;;;;;;18.95;14.43;;;;;;;;;;5030687;28;20041;-92
2022/03/25 12:27:38;;;;;;;18.95;15.40;;;;;;;;;;5025053;28;20038;-92
2022/03/25 12:30:04;;;;;;;19.67;16.27;;;;;;;;;;5032682;28;20090;-91
2022/03/25 12:32:31;;;;;;;19.98;16.33;;;;;;;;;;5031801;28;20053;-91
2022/03/25 12:35:01;;;;;;;21.60;17.65;;;;;;;;;;5015938;28;20056;-77
2022/03/25 12:43:28;;;;;;;19.67;15.93;;;;;;;;;;5206961;22;20050;-91
2022/03/25 12:45:56;;;;;;;18.80;15.30;;;;;;;;;;4992060;28;20124;-87
2022/03/25 12:48:23;;;;;;;20.90;15.70;;;;;;;;;;4997319;28;20376;-90
2022/03/25 12:51:01;;;;;;;24.00;16.20;;;;;;;;;;4996132;28;20042;-91
2022/03/25 12:53:33;;;;;;;19.10;15.57;;;;;;;;;;4998017;28;20046;-90
2022/03/25 12:56:02;;;;;;;21.50;14.65;;;;;;;;;;4999344;28;20077;-88
2022/03/25 13:08:36;;;;;;;17.45;13.13;;;;;;;;;;5004176;28;20073;-88
2022/03/25 13:11:04;;;;;;;15.02;11.23;;;;;;;;;;5020174;28;20540;-90
2022/03/25 13:14:12;;;;;;;;;;;;;;;;;;;;;
2022/03/25 13:36:54;;;;;;;15.90;9.15;;;;;;;;;;4992753;28;20053;-89
2022/03/25 13:45:57;;;;;;;15.07;9.52;;;;;;;;;;5204170;22;21143;-87
2022/03/25 13:51:20;;;;;;;15.77;11.23;;;;;;;;;;5011105;23;20057;-85
2022/03/25 13:53:47;;;;;;;13.57;10.15;;;;;;;;;;5010845;28;20076;-85
2022/03/25 13:57:04;;;;;;;15.98;11.00;;;;;;;;;;5011090;28;20045;-86
2022/03/25 14:00:07;;;;;;;14.90;12.82;;;;;;;;;;4908267;29;20058;-85
2022/03/25 14:02:33;;;;;;;16.63;14.15;;;;;;;;;;4932345;29;20071;-85
2022/03/25 14:05:02;;;;;;;17.83;14.43;;;;;;;;;;4984206;28;20050;-83
2022/03/25 14:07:28;;;;;;;15.95;13.77;;;;;;;;;;5006450;28;20054;-79
2022/03/25 14:12:56;;;;;;;17.23;14.07;;;;;;;;;;5026968;23;20049;-75
2022/03/25 14:15:24;;;;;;;15.68;13.90;;;;;;;;;;5007297;28;20125;-76
2022/03/25 14:40:26;;;;;;;12.30;10.48;;;;;;;;;;4984497;28;20129;-89
2022/03/25 15:37:53;;;;;;;9.07;6.65;;;;;;;;;;4913844;29;20066;-84
2022/03/25 15:40:19;;;;;;;8.50;6.82;;;;;;;;;;4962415;23;20556;-80
2022/03/25 15:42:51;;;;;;;8.68;7.63;;;;;;;;;;4992129;28;20096;-78
2022/03/25 15:45:18;;;;;;;7.95;6.55;;;;;;;;;;4967166;28;20408;-81
2022/03/25 16:01:09;;;;;;;7.40;6.40;;;;;;;;;;4837926;24;20093;-82
2022/03/25 16:10:08;;;;;;;9.10;7.88;;;;;;;;;;5048505;24;20086;-93
2022/03/25 16:30:33;;;;;;;9.80;7.43;;;;;;;;;;4869902;24;20136;-89
2022/03/25 16:36:19;;;;;;;9.63;8.05;;;;;;;;;;4881183;23;20717;-93
2022/03/25 16:39:11;;;;;;;9.88;7.95;;;;;;;;;;4847680;29;20073;-95
2022/03/25 16:41:37;;;;;;;9.45;7.13;;;;;;;;;;4863037;29;20066;-90
2022/03/25 16:50:08;;;;;;;7.13;6.40;;;;;;;;;;4846260;24;20115;-93
2022/03/25 16:56:00;;;;;;;7.75;7.03;;;;;;;;;;4854948;29;20120;-93
2022/03/25 17:05:10;;;;;;;8.68;7.70;;;;;;;;;;4797743;29;20059;-91
2022/03/25 17:07:36;;;;;;;10.70;8.45;;;;;;;;;;4752171;30;20133;-91
2022/03/25 17:10:03;;;;;;;10.63;7.72;;;;;;;;;;4776873;30;20104;-90
2022/03/25 17:16:57;;;;;;;11.45;8.65;;;;;;;;;;4671122;30;20104;-85
2022/03/25 17:19:32;;;;;;;9.98;8.35;;;;;;;;;;4661649;30;20471;-87
2022/03/25 17:25:51;;;;;;;12.60;9.95;;;;;;;;;;4788425;29;20119;-82
2022/03/25 17:28:19;;;;;;;13.38;10.10;;;;;;;;;;4784974;29;20107;-81
2022/03/25 17:30:45;;;;;;;14.57;12.38;;;;;;;;;;4788645;29;20562;-82
2022/03/25 17:33:11;;;;;;;15.80;13.68;;;;;;;;;;4781256;29;20046;-84
2022/03/25 17:35:40;;;;;;;17.67;15.77;;;;;;;;;;4806756;29;20046;-86
2022/03/25 17:38:07;;;;;;;21.27;18.98;;;;;;;;;;4789916;29;20071;-86
2022/03/25 17:40:34;;;;;;;22.95;20.40;;;;;;;;;;4797047;29;20138;-86
2022/03/25 17:43:06;;;;;;;23.10;20.70;;;;;;;;;;4787035;29;20051;-85
2022/03/25 17:45:32;;;;;;;23.15;20.80;;;;;;;;;;4786035;29;20498;-86
2022/03/25 17:48:01;;;;;;;23.92;21.40;;;;;;;;;;4790315;29;20058;-86
2022/03/25 17:50:28;;;;;;;21.88;19.77;;;;;;;;;;4789757;29;20055;-87
2022/03/25 17:52:54;;;;;;;23.05;20.55;;;;;;;;;;4804101;29;20054;-81
2022/03/25 17:55:23;;;;;;;24.25;21.85;;;;;;;;;;4801040;29;20043;-79
2022/03/25 18:03:15;;;;;;;26.95;24.08;;;;;;;;;;5422287;24;20115;-82
2022/03/25 18:05:54;;;;;;;27.23;24.42;;;;;;;;;;4818757;29;20054;-82
2022/03/25 18:23:07;;;;;;;27.58;24.67;;;;;;;;;;4828206;24;20058;-82
2022/03/25 18:35:12;;;;;;;26.95;22.88;;;;;;;;;;4842312;24;20141;-80